createdAt,value
2023-05-10T00:00:03.031Z,983.0159
2023-05-10T00:01:02.974Z,982.8791
2023-05-10T00:02:03.982Z,982.8217
2023-05-10T00:03:01.964Z,982.8351
2023-05-10T00:04:03.092Z,982.8265
2023-05-10T00:05:02.877Z,982.9131
2023-05-10T00:06:03.377Z,982.9131
2023-05-10T00:07:02.250Z,983.0193
2023-05-10T00:08:01.880Z,982.6922
2023-05-10T00:09:03.042Z,982.8351
2023-05-10T00:10:02.383Z,982.8925
2023-05-10T00:11:01.555Z,982.8724
2023-05-10T00:12:02.093Z,982.6295
2023-05-10T00:13:01.699Z,982.709
2023-05-10T00:14:02.312Z,982.5746
2023-05-10T00:15:02.887Z,982.6736
2023-05-10T00:16:01.973Z,982.793
2023-05-10T00:17:02.384Z,982.5942
2023-05-10T00:18:01.985Z,982.5855
2023-05-10T00:19:01.664Z,982.6429
2023-05-10T00:20:02.793Z,982.709
2023-05-10T00:21:02.095Z,982.6736
2023-05-10T00:22:01.714Z,982.631
2023-05-10T00:23:04.432Z,982.5961
2023-05-10T00:24:03.669Z,982.6468
2023-05-10T00:25:02.562Z,982.5607
2023-05-10T00:26:01.945Z,982.6468
2023-05-10T00:27:03.118Z,982.6755
2023-05-10T00:28:02.009Z,982.6908
2023-05-10T00:29:01.607Z,982.7143
2023-05-10T00:30:04.659Z,982.5422
2023-05-10T00:31:02.121Z,982.6144
2023-05-10T00:32:01.791Z,982.6938
2023-05-10T00:33:01.447Z,982.579
2023-05-10T00:34:02.004Z,982.5236
2023-05-10T00:35:02.611Z,982.4175
2023-05-10T00:36:02.216Z,982.667
2023-05-10T00:37:01.523Z,982.603
2023-05-10T00:38:02.271Z,982.4897
2023-05-10T00:39:03.598Z,982.605
2023-05-10T00:40:02.437Z,982.6398
2023-05-10T00:41:02.412Z,982.5404
2023-05-10T00:42:02.257Z,982.5476
2023-05-10T00:43:01.949Z,982.4697
2023-05-10T00:44:01.682Z,982.6131
2023-05-10T00:45:02.461Z,982.5926
2023-05-10T00:46:02.268Z,982.4902
2023-05-10T00:47:01.551Z,982.4124
2023-05-10T00:48:02.211Z,982.6992
2023-05-10T00:49:02.383Z,982.5352
2023-05-10T00:50:02.824Z,982.4143
2023-05-10T00:52:03.044Z,982.5444
2023-05-10T00:53:03.509Z,982.6452
2023-05-10T00:54:01.532Z,982.4799
2023-05-10T00:55:02.890Z,982.4312
2023-05-10T00:56:02.942Z,982.3533
2023-05-10T00:57:01.692Z,982.7485
2023-05-10T00:58:01.398Z,982.468
2023-05-10T00:59:01.920Z,982.3333
2023-05-10T01:00:02.303Z,982.34
2023-05-10T01:01:01.457Z,982.6778
2023-05-10T01:02:03.265Z,982.6
2023-05-10T01:03:03.142Z,982.5293
2023-05-10T01:04:02.509Z,982.5293
2023-05-10T01:05:04.132Z,982.4873
2023-05-10T01:06:01.755Z,982.4166
2023-05-10T01:07:02.269Z,982.5041
2023-05-10T01:08:01.933Z,982.5189
2023-05-10T01:09:01.523Z,982.6202
2023-05-10T01:10:05.628Z,982.6202
2023-05-10T01:11:03.732Z,982.4636
2023-05-10T01:12:02.502Z,982.5863
2023-05-10T01:13:03.556Z,982.4803
2023-05-10T01:14:03.048Z,982.573
2023-05-10T01:15:04.082Z,982.4226
2023-05-10T01:16:01.949Z,982.5171
2023-05-10T01:17:02.294Z,982.5611
2023-05-10T01:18:01.797Z,982.3406
2023-05-10T01:19:02.319Z,982.5053
2023-05-10T01:20:02.765Z,982.4924
2023-05-10T01:21:03.503Z,982.5655
2023-05-10T01:22:02.334Z,982.4085
2023-05-10T01:23:01.947Z,982.3819
2023-05-10T01:24:01.436Z,982.5393
2023-05-10T01:25:02.658Z,982.4621
2023-05-10T01:26:02.061Z,982.4907
2023-05-10T01:27:02.251Z,982.4621
2023-05-10T01:28:01.967Z,982.526
2023-05-10T01:29:03.218Z,982.6124
2023-05-10T01:30:14.995Z,982.6052
2023-05-10T01:31:03.637Z,982.4569
2023-05-10T01:32:01.353Z,982.486
2023-05-10T01:33:03.622Z,982.4722
2023-05-10T01:34:01.436Z,982.7232
2023-05-10T01:35:02.794Z,982.7232
2023-05-10T01:36:02.078Z,982.4589
2023-05-10T01:37:01.460Z,982.6879
2023-05-10T01:38:03.673Z,982.5467
2023-05-10T01:39:01.553Z,982.4875
2023-05-10T01:40:03.043Z,982.5228
2023-05-10T01:41:03.469Z,982.2652
2023-05-10T01:42:02.253Z,982.4621
2023-05-10T01:43:01.928Z,982.3389
2023-05-10T01:44:01.449Z,982.4172
2023-05-10T01:45:02.720Z,982.3026
2023-05-10T01:46:02.236Z,982.4996
2023-05-10T01:47:03.141Z,982.3334
2023-05-10T01:48:02.053Z,982.5411
2023-05-10T01:49:01.569Z,982.3999
2023-05-10T01:50:02.416Z,982.3759
2023-05-10T01:51:03.889Z,982.3453
2023-05-10T01:52:01.755Z,982.4011
2023-05-10T01:53:01.358Z,982.4011
2023-05-10T01:54:02.104Z,982.4231
2023-05-10T01:55:02.556Z,982.4799
2023-05-10T01:56:03.058Z,982.3658
2023-05-10T01:57:03.617Z,982.288
2023-05-10T01:58:03.193Z,982.2512
2023-05-10T01:59:02.202Z,982.2578
2023-05-10T02:00:02.775Z,982.2343
2023-05-10T02:01:01.507Z,982.2798
2023-05-10T02:02:02.026Z,982.288
2023-05-10T02:03:01.623Z,982.288
2023-05-10T02:04:02.304Z,982.4011
2023-05-10T02:05:02.601Z,982.3658
2023-05-10T02:06:02.185Z,982.2645
2023-05-10T02:07:02.100Z,982.3218
2023-05-10T02:08:04.063Z,982.2087
2023-05-10T02:09:02.085Z,982.2057
2023-05-10T02:10:04.122Z,982.3879
2023-05-10T02:11:01.527Z,982.3879
2023-05-10T02:12:02.096Z,982.4586
2023-05-10T02:13:01.636Z,982.3286
2023-05-10T02:14:02.184Z,982.5646
2023-05-10T02:15:02.499Z,982.4166
2023-05-10T02:16:01.523Z,982.5026
2023-05-10T02:17:02.135Z,982.3218
2023-05-10T02:18:01.561Z,982.3519
2023-05-10T02:19:02.106Z,982.3744
2023-05-10T02:20:03.442Z,982.2761
2023-05-10T02:21:01.861Z,982.2567
2023-05-10T02:22:01.385Z,982.3564
2023-05-10T02:23:02.030Z,982.228
2023-05-10T02:24:01.771Z,982.3364
2023-05-10T02:25:02.139Z,982.2505
2023-05-10T02:26:02.171Z,982.3226
2023-05-10T02:27:01.602Z,982.21
2023-05-10T02:28:02.190Z,982.3762
2023-05-10T02:29:01.718Z,982.2044
2023-05-10T02:30:04.725Z,982.2903
2023-05-10T02:31:02.173Z,982.1205
2023-05-10T02:32:03.499Z,982.1425
2023-05-10T02:33:01.391Z,982.3495
2023-05-10T02:34:01.923Z,982.4048
2023-05-10T02:35:02.299Z,982.4335
2023-05-10T02:36:02.196Z,982.4001
2023-05-10T02:37:03.282Z,982.4236
2023-05-10T02:38:02.174Z,982.3024
2023-05-10T02:39:03.379Z,982.4808
2023-05-10T02:40:03.190Z,982.3276
2023-05-10T02:41:03.612Z,982.4048
2023-05-10T02:42:01.614Z,982.3424
2023-05-10T02:43:02.160Z,982.3189
2023-05-10T02:44:01.779Z,982.2279
2023-05-10T02:45:04.131Z,982.3138
2023-05-10T02:46:01.952Z,982.2365
2023-05-10T02:47:02.014Z,982.351
2023-05-10T02:48:01.631Z,982.2084
2023-05-10T02:49:02.180Z,982.3848
2023-05-10T02:50:03.117Z,982.2816
2023-05-10T02:51:01.477Z,982.2816
2023-05-10T02:52:01.927Z,982.3103
2023-05-10T02:53:03.216Z,982.233
2023-05-10T02:54:01.927Z,982.2683
2023-05-10T02:55:02.649Z,982.2234
2023-05-10T02:56:03.126Z,982.2633
2023-05-10T02:57:01.836Z,982.3492
2023-05-10T02:58:01.371Z,982.3364
2023-05-10T02:59:02.001Z,982.3078
2023-05-10T03:00:02.487Z,982.2505
2023-05-10T03:01:03.850Z,982.3078
2023-05-10T03:02:02.885Z,982.1359
2023-05-10T03:03:02.524Z,982.2791
2023-05-10T03:04:02.799Z,982.2505
2023-05-10T03:05:02.873Z,982.1712
2023-05-10T03:06:03.200Z,982.2761
2023-05-10T03:07:02.025Z,982.3233
2023-05-10T03:08:01.592Z,982.1366
2023-05-10T03:09:02.405Z,982.263
2023-05-10T03:10:02.513Z,982.2415
2023-05-10T03:11:01.776Z,982.1264
2023-05-10T03:12:02.178Z,982.2748
2023-05-10T03:13:01.801Z,982.2323
2023-05-10T03:14:01.463Z,982.2477
2023-05-10T03:15:02.926Z,982.2328
2023-05-10T03:16:01.801Z,982.2323
2023-05-10T03:17:01.461Z,982.2681
2023-05-10T03:18:01.868Z,982.241
2023-05-10T03:19:03.983Z,982.3489
2023-05-10T03:20:02.982Z,982.3218
2023-05-10T03:21:01.913Z,982.3939
2023-05-10T03:22:01.386Z,982.3658
2023-05-10T03:23:01.859Z,982.288
2023-05-10T03:24:01.355Z,982.2527
2023-05-10T03:25:05.187Z,982.4465
2023-05-10T03:26:02.342Z,982.3539
2023-05-10T03:27:03.076Z,982.3334
2023-05-10T03:28:01.848Z,982.4194
2023-05-10T03:29:01.349Z,982.3492
2023-05-10T03:30:02.788Z,982.292
2023-05-10T03:31:03.081Z,982.2705
2023-05-10T03:32:02.011Z,982.2991
2023-05-10T03:33:03.240Z,982.3078
2023-05-10T03:34:03.668Z,982.3651
2023-05-10T03:35:02.916Z,982.208
2023-05-10T03:36:02.033Z,982.3139
2023-05-10T03:37:01.916Z,982.2833
2023-05-10T03:38:01.510Z,982.2613
2023-05-10T03:39:01.998Z,982.2966
2023-05-10T03:40:02.365Z,982.4112
2023-05-10T03:41:02.487Z,982.3319
2023-05-10T03:42:01.843Z,982.4685
2023-05-10T03:44:03.545Z,982.2613
2023-05-10T03:45:02.157Z,982.3458
2023-05-10T03:46:02.154Z,982.3233
2023-05-10T03:47:01.685Z,982.1499
2023-05-10T03:48:03.802Z,982.4364
2023-05-10T03:49:01.943Z,982.4717
2023-05-10T03:50:04.632Z,982.2343
2023-05-10T03:51:02.241Z,982.4687
2023-05-10T03:52:01.442Z,982.3469
2023-05-10T03:53:01.924Z,982.3879
2023-05-10T03:54:01.513Z,982.3353
2023-05-10T03:55:02.964Z,982.2273
2023-05-10T03:56:02.012Z,982.2478
2023-05-10T03:57:01.344Z,982.1905
2023-05-10T03:58:01.926Z,982.19
2023-05-10T03:59:01.413Z,982.0733
2023-05-10T04:00:02.790Z,982.2371
2023-05-10T04:01:01.676Z,982.1224
2023-05-10T04:02:03.926Z,982.2218
2023-05-10T04:03:03.529Z,982.1424
2023-05-10T04:04:02.266Z,982.2065
2023-05-10T04:05:04.319Z,982.2351
2023-05-10T04:06:02.021Z,982.1204
2023-05-10T04:08:01.869Z,982.1911
2023-05-10T04:09:01.371Z,982.3043
2023-05-10T04:10:02.653Z,982.1609
2023-05-10T04:11:01.908Z,982.3315
2023-05-10T04:12:03.748Z,982.1307
2023-05-10T04:13:01.593Z,982.3315
2023-05-10T04:14:02.255Z,982.2521
2023-05-10T04:15:02.629Z,982.3869
2023-05-10T04:16:01.573Z,982.2803
2023-05-10T04:17:02.245Z,982.4643
2023-05-10T04:18:01.614Z,982.2348
2023-05-10T04:19:02.253Z,982.3782
2023-05-10T04:20:04.207Z,982.2348
2023-05-10T04:21:02.108Z,982.3495
2023-05-10T04:22:01.437Z,982.2988
2023-05-10T04:23:02.466Z,982.2988
2023-05-10T04:24:01.753Z,982.1339
2023-05-10T04:25:03.898Z,982.1979
2023-05-10T04:26:01.596Z,982.3127
2023-05-10T04:27:01.996Z,982.1032
2023-05-10T04:28:01.360Z,982.117
2023-05-10T04:29:02.029Z,982.1524
2023-05-10T04:31:02.614Z,982.1877
2023-05-10T04:32:02.335Z,982.3666
2023-05-10T04:33:03.617Z,982.258
2023-05-10T04:34:01.920Z,982.2359
2023-05-10T04:35:02.528Z,982.2359
2023-05-10T04:36:01.961Z,982.2498
2023-05-10T04:37:01.454Z,982.0776
2023-05-10T04:38:02.091Z,982.2851
2023-05-10T04:39:01.683Z,982.3559
2023-05-10T04:40:01.995Z,982.3559
2023-05-10T04:41:02.190Z,982.3985
2023-05-10T04:42:01.778Z,982.5046
2023-05-10T04:43:03.092Z,982.2611
2023-05-10T04:44:01.990Z,982.3037
2023-05-10T04:45:02.564Z,982.3524
2023-05-10T04:46:01.457Z,982.2376
2023-05-10T04:47:03.606Z,982.2161
2023-05-10T04:48:01.470Z,982.1648
2023-05-10T04:49:03.267Z,982.3361
2023-05-10T04:50:02.915Z,982.1197
2023-05-10T04:51:01.765Z,982.211
2023-05-10T04:52:03.853Z,982.2464
2023-05-10T04:53:01.852Z,982.1095
2023-05-10T04:54:06.436Z,982.3306
2023-05-10T04:55:03.072Z,982.3578
2023-05-10T04:56:03.906Z,982.3712
2023-05-10T04:57:01.858Z,982.4127
2023-05-10T04:58:01.648Z,982.3333
2023-05-10T04:59:02.008Z,982.3404
2023-05-10T05:00:04.104Z,982.3102
2023-05-10T05:01:01.870Z,982.281
2023-05-10T05:04:05.017Z,982.4365
2023-05-10T05:05:03.410Z,982.3129
2023-05-10T05:06:02.595Z,982.2539
2023-05-10T05:07:02.115Z,982.239
2023-05-10T05:08:01.873Z,982.3453
2023-05-10T05:09:03.196Z,982.293
2023-05-10T05:10:04.569Z,982.2484
2023-05-10T05:11:03.680Z,982.3978
2023-05-10T05:12:01.758Z,982.3886
2023-05-10T05:13:02.293Z,982.1638
2023-05-10T05:14:02.012Z,982.2902
2023-05-10T05:15:02.622Z,982.375
2023-05-10T05:16:01.824Z,982.3211
2023-05-10T05:17:02.029Z,982.2924
2023-05-10T05:18:01.635Z,982.4126
2023-05-10T05:19:02.261Z,982.2313
2023-05-10T05:20:03.076Z,982.3022
2023-05-10T05:21:02.112Z,982.2781
2023-05-10T05:22:04.129Z,982.1543
2023-05-10T05:23:03.530Z,982.4977
2023-05-10T05:24:03.114Z,982.1811
2023-05-10T05:25:02.776Z,982.122
2023-05-10T05:26:01.709Z,982.214
2023-05-10T05:27:04.018Z,982.1971
2023-05-10T05:28:01.857Z,982.1971
2023-05-10T05:29:01.453Z,982.1107
2023-05-10T05:30:05.042Z,982.1966
2023-05-10T05:31:02.409Z,982.3324
2023-05-10T05:32:01.668Z,982.246
2023-05-10T05:33:02.392Z,982.1375
2023-05-10T05:34:01.682Z,982.2579
2023-05-10T05:35:02.329Z,982.2291
2023-05-10T05:36:03.874Z,982.1272
2023-05-10T05:37:01.680Z,982.1041
2023-05-10T05:38:02.230Z,982.2266
2023-05-10T05:39:01.924Z,982.311
2023-05-10T05:40:02.098Z,982.2312
2023-05-10T05:41:02.370Z,982.3656
2023-05-10T05:42:01.775Z,982.1351
2023-05-10T05:43:01.473Z,982.1994
2023-05-10T05:44:02.076Z,982.2133
2023-05-10T05:45:24.851Z,982.1042
2023-05-10T05:46:03.793Z,982.2689
2023-05-10T05:47:01.680Z,982.2741
2023-05-10T05:48:02.232Z,982.2741
2023-05-10T05:49:01.744Z,982.1501
2023-05-10T05:50:02.256Z,982.335
2023-05-10T05:51:02.559Z,982.162
2023-05-10T05:52:01.703Z,982.2196
2023-05-10T05:53:02.227Z,982.2619
2023-05-10T05:54:01.840Z,982.2805
2023-05-10T05:55:04.130Z,982.416
2023-05-10T05:56:02.010Z,982.2295
2023-05-10T05:57:02.288Z,982.3583
2023-05-10T05:58:01.829Z,982.3362
2023-05-10T05:59:01.439Z,982.5448
2023-05-10T06:00:04.769Z,982.3362
2023-05-10T06:01:02.535Z,982.3717
2023-05-10T06:02:01.836Z,982.4005
2023-05-10T06:03:01.771Z,982.3496
2023-05-10T06:04:01.970Z,982.3923
2023-05-10T06:05:02.359Z,982.3053
2023-05-10T06:06:02.349Z,982.4413
2023-05-10T06:07:01.834Z,982.3259
2023-05-10T06:08:01.384Z,982.3394
2023-05-10T06:09:01.930Z,982.4667
2023-05-10T06:10:02.810Z,982.5532
2023-05-10T06:11:01.547Z,982.4513
2023-05-10T06:12:02.074Z,982.3493
2023-05-10T06:13:01.749Z,982.3627
2023-05-10T06:14:03.827Z,982.5483
2023-05-10T06:15:04.279Z,982.5689
2023-05-10T06:16:01.793Z,982.4246
2023-05-10T06:17:02.368Z,982.4376
2023-05-10T06:18:01.799Z,982.4443
2023-05-10T06:20:02.566Z,982.5155
2023-05-10T06:21:01.473Z,982.5871
2023-05-10T06:22:03.678Z,982.5202
2023-05-10T06:23:01.530Z,982.6053
2023-05-10T06:24:03.824Z,982.8173
2023-05-10T06:25:02.792Z,982.4507
2023-05-10T06:26:01.726Z,982.4353
2023-05-10T06:27:02.244Z,982.4632
2023-05-10T06:28:01.850Z,982.5411
2023-05-10T06:29:01.436Z,982.6128
2023-05-10T06:30:12.307Z,982.4814
2023-05-10T06:31:01.991Z,982.4597
2023-05-10T06:32:03.201Z,982.6238
2023-05-10T06:33:02.200Z,982.4644
2023-05-10T06:34:03.617Z,982.578
2023-05-10T06:35:04.421Z,982.5982
2023-05-10T06:36:03.857Z,982.7258
2023-05-10T06:37:03.358Z,982.6236
2023-05-10T06:38:02.346Z,982.8956
2023-05-10T06:39:01.938Z,982.7939
2023-05-10T06:40:02.570Z,982.6583
2023-05-10T06:41:01.629Z,982.665
2023-05-10T06:42:03.773Z,982.7919
2023-05-10T06:43:01.626Z,982.6563
2023-05-10T06:44:02.197Z,982.8632
2023-05-10T06:45:02.862Z,982.8632
2023-05-10T06:46:01.986Z,982.6635
2023-05-10T06:47:01.606Z,982.6833
2023-05-10T06:48:04.037Z,982.7194
2023-05-10T06:49:01.867Z,982.7334
2023-05-10T06:50:02.405Z,982.8189
2023-05-10T06:51:03.564Z,982.8922
2023-05-10T06:52:01.417Z,982.6924
2023-05-10T06:53:02.170Z,982.7517
2023-05-10T06:54:02.257Z,982.9534
2023-05-10T06:55:02.512Z,982.846
2023-05-10T06:56:04.448Z,982.8479
2023-05-10T06:57:05.784Z,982.8359
2023-05-10T06:58:03.771Z,982.8239
2023-05-10T06:59:03.211Z,982.8909
2023-05-10T07:00:02.321Z,983.1595
2023-05-10T07:01:02.448Z,982.9742
2023-05-10T07:03:02.988Z,982.9925
2023-05-10T07:04:03.368Z,983.0214
2023-05-10T07:05:03.616Z,983.0522
2023-05-10T07:06:03.544Z,983.0021
2023-05-10T07:07:01.459Z,982.9603
2023-05-10T07:08:02.003Z,982.9824
2023-05-10T07:09:01.546Z,982.9973
2023-05-10T07:10:02.841Z,983.0127
2023-05-10T07:11:02.685Z,983.0926
2023-05-10T07:12:02.363Z,983.0507
2023-05-10T07:13:02.052Z,982.9146
2023-05-10T07:14:01.370Z,983.0166
2023-05-10T07:15:02.224Z,983.1248
2023-05-10T07:16:03.881Z,983.0464
2023-05-10T07:17:01.637Z,983.1839
2023-05-10T07:18:02.442Z,983.0108
2023-05-10T07:19:01.786Z,983.1267
2023-05-10T07:20:02.254Z,983.1248
2023-05-10T07:21:03.005Z,983.1825
2023-05-10T07:22:03.298Z,983.0671
2023-05-10T07:23:02.113Z,983.1455
2023-05-10T07:24:01.692Z,983.1825
2023-05-10T07:25:03.898Z,983.1402
2023-05-10T07:26:02.645Z,983.1897
2023-05-10T07:27:02.154Z,983.2965
2023-05-10T07:28:01.366Z,983.2369
2023-05-10T07:29:03.597Z,983.3235
2023-05-10T07:30:02.339Z,983.208
2023-05-10T07:31:02.452Z,983.2239
2023-05-10T07:32:03.560Z,983.2239
2023-05-10T07:33:01.428Z,983.2816
2023-05-10T07:34:03.592Z,983.3384
2023-05-10T07:35:02.365Z,983.3235
2023-05-10T07:36:02.572Z,983.4438
2023-05-10T07:37:01.865Z,983.2528
2023-05-10T07:38:03.226Z,983.2474
2023-05-10T07:39:02.243Z,983.3268
2023-05-10T07:40:02.539Z,983.6289
2023-05-10T07:41:01.752Z,983.5153
2023-05-10T07:42:02.090Z,983.5321
2023-05-10T07:43:01.601Z,983.4032
2023-05-10T07:44:02.196Z,983.4979
2023-05-10T07:45:02.625Z,983.6133
2023-05-10T07:46:03.184Z,983.5642
2023-05-10T07:47:02.095Z,983.5796
2023-05-10T07:48:01.669Z,983.7405
2023-05-10T07:49:02.252Z,983.5063
2023-05-10T07:50:02.819Z,983.5231
2023-05-10T07:51:01.970Z,983.4894
2023-05-10T07:52:01.457Z,983.5417
2023-05-10T07:53:02.004Z,983.6165
2023-05-10T07:54:01.625Z,983.6395
2023-05-10T07:55:02.779Z,983.8426
2023-05-10T07:56:02.346Z,983.601
2023-05-10T07:57:01.484Z,983.682
2023-05-10T07:58:02.166Z,983.6757
2023-05-10T07:59:01.759Z,983.6704
2023-05-10T08:00:02.356Z,983.679
2023-05-10T08:01:03.517Z,983.6305
2023-05-10T08:02:01.392Z,983.6899
2023-05-10T08:03:02.341Z,983.5325
2023-05-10T08:04:01.912Z,983.5833
2023-05-10T08:05:02.314Z,983.6562
2023-05-10T08:06:01.667Z,983.614
2023-05-10T08:07:01.375Z,983.6144
2023-05-10T08:08:02.298Z,983.9238
2023-05-10T08:09:01.676Z,983.6513
2023-05-10T08:10:02.932Z,983.5799
2023-05-10T08:11:01.804Z,983.7745
2023-05-10T08:12:03.950Z,983.7745
2023-05-10T08:13:01.683Z,983.8528
2023-05-10T08:14:02.207Z,983.8528
2023-05-10T08:15:02.340Z,983.6086
2023-05-10T08:16:02.453Z,983.8528
2023-05-10T08:17:03.456Z,983.7008
2023-05-10T08:18:02.294Z,983.7008
2023-05-10T08:19:01.824Z,983.8289
2023-05-10T08:20:02.340Z,983.8289
2023-05-10T08:21:02.186Z,984.0304
2023-05-10T08:22:01.512Z,984.0304
2023-05-10T08:23:02.005Z,983.864
2023-05-10T08:24:03.389Z,983.8217
2023-05-10T08:25:02.736Z,983.7138
2023-05-10T08:26:01.603Z,984.0659
2023-05-10T08:27:02.163Z,983.8711
2023-05-10T08:28:01.677Z,983.8338
2023-05-10T08:29:02.266Z,983.8761
2023-05-10T08:30:02.521Z,983.8252
2023-05-10T08:31:04.779Z,983.9102
2023-05-10T08:32:02.171Z,983.8747
2023-05-10T08:33:01.645Z,983.939
2023-05-10T08:34:02.089Z,983.8526
2023-05-10T08:35:02.198Z,983.8594
2023-05-10T08:36:03.896Z,984.0245
2023-05-10T08:37:01.594Z,983.858
2023-05-10T08:38:02.079Z,983.9349
2023-05-10T08:39:01.633Z,983.8904
2023-05-10T08:40:02.959Z,984.0123
2023-05-10T08:41:01.593Z,984.0042
2023-05-10T08:42:03.761Z,984.0109
2023-05-10T08:43:01.584Z,983.9736
2023-05-10T08:44:02.087Z,983.7503
2023-05-10T08:45:02.508Z,983.965
2023-05-10T08:46:02.624Z,983.992
2023-05-10T08:47:01.733Z,983.9123
2023-05-10T08:48:02.256Z,984.0775
2023-05-10T08:49:01.758Z,984.2198
2023-05-10T08:50:03.202Z,984.1032
2023-05-10T08:51:01.858Z,984.1289
2023-05-10T08:52:02.319Z,983.7897
2023-05-10T08:53:01.792Z,983.8523
2023-05-10T08:54:03.989Z,983.9135
2023-05-10T08:55:02.597Z,983.9545
2023-05-10T08:56:01.416Z,983.9968
2023-05-10T08:57:01.913Z,984.046
2023-05-10T08:58:01.423Z,984.0635
2023-05-10T08:59:03.589Z,983.9684
2023-05-10T09:00:02.399Z,984.0301
2023-05-10T09:01:02.306Z,983.9923
2023-05-10T09:02:02.664Z,983.9923
2023-05-10T09:03:03.337Z,983.8926
2023-05-10T09:04:02.653Z,984.0861
2023-05-10T09:05:02.447Z,984.1506
2023-05-10T09:06:03.855Z,984.142
2023-05-10T09:07:03.451Z,984.2205
2023-05-10T09:08:02.327Z,984.1321
2023-05-10T09:09:01.835Z,984.363
2023-05-10T09:10:02.220Z,984.1393
2023-05-10T09:11:04.243Z,984.1307
2023-05-10T09:12:01.840Z,984.363
2023-05-10T09:13:01.427Z,984.3987
2023-05-10T09:14:03.591Z,984.1393
2023-05-10T09:15:02.397Z,984.363
2023-05-10T09:16:09.852Z,984.2918
2023-05-10T09:17:01.481Z,984.363
2023-05-10T09:18:02.227Z,984.363
2023-05-10T09:19:02.207Z,984.1677
2023-05-10T09:20:02.813Z,984.309
2023-05-10T09:21:03.373Z,984.2801
2023-05-10T09:22:04.057Z,984.1276
2023-05-10T09:23:01.697Z,984.2923
2023-05-10T09:24:02.173Z,984.3284
2023-05-10T09:25:02.569Z,984.2982
2023-05-10T09:26:02.478Z,984.235
2023-05-10T09:27:02.243Z,984.2927
2023-05-10T09:28:03.631Z,984.2715
2023-05-10T09:29:01.603Z,984.2571
2023-05-10T09:30:02.268Z,984.3284
2023-05-10T09:31:01.416Z,984.415
2023-05-10T09:32:01.988Z,984.2431
2023-05-10T09:33:01.907Z,984.2819
2023-05-10T09:34:01.533Z,984.4343
2023-05-10T09:35:02.399Z,984.4343
2023-05-10T09:36:03.155Z,984.2304
2023-05-10T09:37:02.077Z,984.3008
2023-05-10T09:38:03.283Z,984.3148
2023-05-10T09:39:02.175Z,984.3573
2023-05-10T09:40:02.534Z,984.4656
2023-05-10T09:41:03.275Z,984.286
2023-05-10T09:42:02.162Z,984.272
2023-05-10T09:43:03.507Z,984.3008
2023-05-10T09:44:02.316Z,984.235
2023-05-10T09:45:04.429Z,984.2693
2023-05-10T09:46:02.820Z,984.4137
2023-05-10T09:47:03.111Z,984.2756
2023-05-10T09:48:02.017Z,984.3559
2023-05-10T09:49:01.680Z,984.2246
2023-05-10T09:50:02.273Z,984.2824
2023-05-10T09:51:02.197Z,984.3831
2023-05-10T09:52:01.738Z,984.3673
2023-05-10T09:53:02.326Z,984.4743
2023-05-10T09:54:03.598Z,984.3659
2023-05-10T09:55:02.416Z,984.3217
2023-05-10T09:56:02.596Z,984.4815
2023-05-10T09:57:03.643Z,984.3587
2023-05-10T09:58:03.171Z,984.3587
2023-05-10T09:59:03.670Z,984.4662
2023-05-10T10:00:02.798Z,984.4458
2023-05-10T10:01:02.538Z,984.4743
2023-05-10T10:02:04.032Z,984.4084
2023-05-10T10:03:01.838Z,984.4509
2023-05-10T10:04:01.678Z,984.4951
2023-05-10T10:05:04.314Z,984.5308
2023-05-10T10:06:03.648Z,984.3795
2023-05-10T10:07:01.442Z,984.5222
2023-05-10T10:08:03.955Z,984.4802
2023-05-10T10:09:01.762Z,984.5529
2023-05-10T10:10:02.477Z,984.4509
2023-05-10T10:11:03.254Z,984.5005
2023-05-10T10:12:03.741Z,984.5294
2023-05-10T10:13:01.600Z,984.5872
2023-05-10T10:14:02.100Z,984.4373
2023-05-10T10:15:03.159Z,984.4802
2023-05-10T10:16:03.626Z,984.5091
2023-05-10T10:18:02.001Z,984.5294
2023-05-10T10:19:01.755Z,984.5294
2023-05-10T10:20:03.027Z,984.5872
2023-05-10T10:21:02.120Z,984.4852
2023-05-10T10:22:01.688Z,984.4495
2023-05-10T10:23:01.512Z,984.5294
2023-05-10T10:24:02.173Z,984.7028
2023-05-10T10:25:02.811Z,984.4716
2023-05-10T10:26:01.862Z,984.6586
2023-05-10T10:28:02.020Z,984.728
2023-05-10T10:29:03.376Z,984.6142
2023-05-10T10:30:08.858Z,984.629
2023-05-10T10:31:02.200Z,984.6498
2023-05-10T10:32:01.553Z,984.5649
2023-05-10T10:33:05.618Z,984.587
2023-05-10T10:34:01.459Z,984.8311
2023-05-10T10:35:02.754Z,984.7625
2023-05-10T10:36:03.395Z,984.7268
2023-05-10T10:37:02.018Z,984.5319
2023-05-10T10:38:01.533Z,984.5373
2023-05-10T10:39:02.011Z,984.6886
2023-05-10T10:40:02.197Z,984.6159
2023-05-10T10:41:02.374Z,984.7378
2023-05-10T10:42:01.625Z,984.6227
2023-05-10T10:43:02.129Z,984.4715
2023-05-10T10:44:01.613Z,984.5713
2023-05-10T10:45:02.850Z,984.6341
2023-05-10T10:46:01.757Z,984.4815
2023-05-10T10:47:02.403Z,984.5971
2023-05-10T10:48:01.618Z,984.5529
2023-05-10T10:49:02.081Z,984.6242
2023-05-10T10:50:02.361Z,984.5443
2023-05-10T10:51:02.613Z,984.645
2023-05-10T10:52:01.696Z,984.6807
2023-05-10T10:53:02.323Z,984.6807
2023-05-10T10:54:01.681Z,984.6586
2023-05-10T10:55:02.112Z,984.8713
2023-05-10T10:56:02.153Z,984.5855
2023-05-10T10:57:01.531Z,984.73
2023-05-10T10:58:02.137Z,984.679
2023-05-10T10:59:01.516Z,984.7436
2023-05-10T11:00:02.809Z,984.7491
2023-05-10T11:01:01.774Z,984.7066
2023-05-10T11:10:11.125Z,984.7657
2023-05-10T11:17:47.883Z,984.8193
2023-05-10T11:18:04.880Z,984.6766
2023-05-10T11:19:01.930Z,984.5949
2023-05-10T11:20:02.578Z,984.6144
2023-05-10T11:21:02.089Z,984.5493
2023-05-10T11:22:01.540Z,984.7356
2023-05-10T11:23:02.017Z,984.6833
2023-05-10T11:24:01.503Z,984.6543
2023-05-10T11:25:04.551Z,984.6539
2023-05-10T11:26:01.806Z,984.7394
2023-05-10T11:27:02.263Z,984.6019
2023-05-10T11:28:01.755Z,984.6598
2023-05-10T11:29:02.319Z,984.8099
2023-05-10T11:30:04.947Z,984.7682
2023-05-10T11:31:01.594Z,984.8839
2023-05-10T11:32:02.033Z,984.789
2023-05-10T11:33:01.581Z,984.6679
2023-05-10T11:34:03.667Z,984.6598
2023-05-10T11:35:02.398Z,984.6019
2023-05-10T11:36:03.919Z,984.5947
2023-05-10T11:37:01.790Z,984.8026
2023-05-10T11:38:01.287Z,984.7683
2023-05-10T11:39:01.938Z,984.6969
2023-05-10T11:40:02.349Z,984.789
2023-05-10T11:41:02.314Z,984.789
2023-05-10T11:42:01.611Z,984.596
2023-05-10T11:43:03.861Z,984.7669
2023-05-10T11:44:01.695Z,984.7683
2023-05-10T11:45:03.200Z,984.7683
2023-05-10T11:46:01.880Z,984.7105
2023-05-10T11:47:01.478Z,984.7177
2023-05-10T11:48:02.044Z,984.7092
2023-05-10T11:49:01.568Z,984.7074
2023-05-10T11:50:03.135Z,984.687
2023-05-10T11:51:01.781Z,984.6734
2023-05-10T11:52:02.166Z,984.8371
2023-05-10T11:53:02.023Z,984.7381
2023-05-10T11:54:03.625Z,984.786
2023-05-10T11:55:02.805Z,984.7719
2023-05-10T11:56:04.117Z,984.786
2023-05-10T11:57:01.928Z,984.687
2023-05-10T11:58:01.436Z,984.7906
2023-05-10T11:59:02.021Z,984.8183
2023-05-10T12:00:02.403Z,984.9409
2023-05-10T12:01:02.334Z,984.8251
2023-05-10T12:02:01.875Z,984.8455
2023-05-10T12:03:03.443Z,984.8455
2023-05-10T12:04:02.565Z,984.8732
2023-05-10T12:05:02.785Z,984.8442
2023-05-10T12:06:01.631Z,984.96
2023-05-10T12:07:02.174Z,984.88
2023-05-10T12:08:01.672Z,985.0026
2023-05-10T12:09:02.187Z,984.9907
2023-05-10T12:10:02.698Z,984.8677
2023-05-10T12:11:04.253Z,984.9328